createdAt,value
2023-04-30T00:00:50.123Z,99307.73
2023-04-30T00:03:16.926Z,99307.15
2023-04-30T00:05:43.820Z,99305.73
2023-04-30T00:08:11.121Z,99307.22
2023-04-30T00:10:37.848Z,99304.42
2023-04-30T00:13:04.609Z,99304.25
2023-04-30T00:15:31.949Z,99303.90
2023-04-30T00:17:58.629Z,99294.01
2023-04-30T00:20:25.286Z,99289.61
2023-04-30T00:22:52.005Z,99289.06
2023-04-30T00:25:20.440Z,99289.11
2023-04-30T00:27:47.176Z,99282.92
2023-04-30T00:30:13.807Z,99285.50
2023-04-30T00:32:41.499Z,99278.06
2023-04-30T00:35:08.606Z,99276.13
2023-04-30T00:37:35.360Z,99274.59
2023-04-30T00:40:02.029Z,99271.55
2023-04-30T00:42:29.039Z,99270.29
2023-04-30T00:44:55.700Z,99269.11
2023-04-30T00:47:22.383Z,99261.21
2023-04-30T00:49:49.094Z,99260.65
2023-04-30T00:52:15.801Z,99258.13
2023-04-30T00:54:42.492Z,99252.13
2023-04-30T00:57:09.433Z,99250.35
2023-04-30T00:59:36.130Z,99250.89
2023-04-30T01:02:03.094Z,99252.81
2023-04-30T01:04:30.120Z,99251.77
2023-04-30T01:06:57.469Z,99250.25
2023-04-30T01:09:24.720Z,99250.10
2023-04-30T01:12:06.828Z,99247.06
2023-04-30T01:14:38.107Z,99249.98
2023-04-30T01:17:32.648Z,99246.95
2023-04-30T01:19:59.606Z,99242.32
2023-04-30T01:22:26.245Z,99242.55
2023-04-30T01:25:17.769Z,99242.73
2023-04-30T01:28:16.348Z,99240.23
2023-04-30T01:30:44.395Z,99240.79
2023-04-30T01:33:14.437Z,99240.16
2023-04-30T01:36:00.212Z,99240.55
2023-04-30T01:39:00.643Z,99234.85
2023-04-30T01:41:37.957Z,99229.31
2023-04-30T01:44:07.522Z,99226.05
2023-04-30T01:46:34.941Z,99225.24
2023-04-30T01:49:02.227Z,99225.16
2023-04-30T01:51:42.931Z,99219.30
2023-04-30T01:54:23.667Z,99221.25
2023-04-30T01:57:07.647Z,99218.73
2023-04-30T01:59:35.693Z,99213.54
2023-04-30T02:02:03.419Z,99212.98
2023-04-30T02:04:30.544Z,99214.98
2023-04-30T02:06:58.270Z,99207.31
2023-04-30T02:09:25.037Z,99206.60
2023-04-30T02:11:51.961Z,99203.27
2023-04-30T02:14:18.611Z,99205.67
2023-04-30T02:16:45.362Z,99201.17
2023-04-30T02:19:12.560Z,99199.44
2023-04-30T02:21:39.420Z,99201.71
2023-04-30T02:24:06.423Z,99198.58
2023-04-30T02:26:33.205Z,99200.67
2023-04-30T02:29:00.036Z,99200.45
2023-04-30T02:31:26.819Z,99203.38
2023-04-30T02:33:53.960Z,99201.77
2023-04-30T02:36:20.664Z,99205.23
2023-04-30T02:38:47.439Z,99206.17
2023-04-30T02:41:14.088Z,99205.94
2023-04-30T02:43:41.626Z,99201.44
2023-04-30T02:46:08.405Z,99201.37
2023-04-30T02:48:35.196Z,99201.14
2023-04-30T02:51:02.046Z,99199.52
2023-04-30T02:53:28.882Z,99201.58
2023-04-30T02:55:55.533Z,99200.03
2023-04-30T02:58:22.252Z,99196.55
2023-04-30T03:00:49.862Z,99197.08
2023-04-30T03:03:16.730Z,99192.73
2023-04-30T03:05:44.054Z,99190.26
2023-04-30T03:08:10.622Z,99193.67
2023-04-30T03:10:37.259Z,99189.64
2023-04-30T03:13:04.020Z,99184.79
2023-04-30T03:15:32.525Z,99184.54
2023-04-30T03:17:59.162Z,99183.91
2023-04-30T03:20:25.828Z,99180.45
2023-04-30T03:22:52.533Z,99182.20
2023-04-30T03:25:19.143Z,99182.20
2023-04-30T03:27:45.892Z,99188.14
2023-04-30T03:30:12.641Z,99188.26
2023-04-30T03:32:39.408Z,99189.77
2023-04-30T03:35:06.790Z,99187.74
2023-04-30T03:37:33.589Z,99186.04
2023-04-30T03:40:00.311Z,99191.43
2023-04-30T03:42:27.660Z,99186.02
2023-04-30T03:44:54.404Z,99184.33
2023-04-30T03:47:21.069Z,99184.23
2023-04-30T03:49:54.670Z,99179.28
2023-04-30T03:52:22.228Z,99184.34
2023-04-30T03:54:49.294Z,99183.41
2023-04-30T03:57:16.300Z,99186.62
2023-04-30T03:59:43.073Z,99186.68
2023-04-30T04:02:10.785Z,99189.36
2023-04-30T04:04:38.072Z,99186.94
2023-04-30T04:07:07.453Z,99184.24
2023-04-30T04:09:35.071Z,99187.83
2023-04-30T04:12:04.632Z,99186.23
2023-04-30T04:14:31.258Z,99189.27
2023-04-30T04:16:59.464Z,99186.37
2023-04-30T04:19:26.784Z,99183.60
2023-04-30T04:21:53.629Z,99180.07
2023-04-30T04:24:20.788Z,99182.33
2023-04-30T04:26:48.135Z,99181.36
2023-04-30T04:29:15.294Z,99179.71
2023-04-30T04:31:42.590Z,99174.60
2023-04-30T04:34:11.016Z,99176.19
2023-04-30T04:36:38.466Z,99176.77
2023-04-30T04:39:05.565Z,99176.38
2023-04-30T04:41:32.696Z,99180.42
2023-04-30T04:44:01.177Z,99178.35
2023-04-30T04:46:31.071Z,99179.66
2023-04-30T04:48:57.951Z,99179.13
2023-04-30T04:51:24.524Z,99178.15
2023-04-30T04:53:51.143Z,99178.52
2023-04-30T04:56:18.218Z,99183.40
2023-04-30T04:58:45.319Z,99187.46
2023-04-30T05:01:12.069Z,99190.15
2023-04-30T05:03:39.185Z,99188.18
2023-04-30T05:06:06.135Z,99184.86
2023-04-30T05:08:32.936Z,99183.53
2023-04-30T05:10:59.807Z,99176.34
2023-04-30T05:13:26.450Z,99176.55
2023-04-30T05:15:53.307Z,99173.33
2023-04-30T05:18:20.303Z,99177.18
2023-04-30T05:20:47.044Z,99168.41
2023-04-30T05:23:13.692Z,99171.88
2023-04-30T05:25:40.462Z,99173.53
2023-04-30T05:28:07.381Z,99171.52
2023-04-30T05:30:34.049Z,99169.63
2023-04-30T05:33:00.760Z,99167.45
2023-04-30T05:35:27.726Z,99159.20
2023-04-30T05:37:54.308Z,99160.90
2023-04-30T05:40:21.035Z,99160.69
2023-04-30T05:42:48.128Z,99165.45
2023-04-30T05:45:16.630Z,99161.76
2023-04-30T05:47:43.402Z,99156.04
2023-04-30T05:50:10.418Z,99152.58
2023-04-30T05:52:37.895Z,99152.44
2023-04-30T05:55:05.947Z,99151.02
2023-04-30T05:57:32.907Z,99151.83
2023-04-30T05:59:59.693Z,99149.40
2023-04-30T06:02:26.577Z,99149.50
2023-04-30T06:04:54.002Z,99151.66
2023-04-30T06:07:20.830Z,99151.41
2023-04-30T06:09:47.500Z,99149.55
2023-04-30T06:12:14.095Z,99145.77
2023-04-30T06:14:44.828Z,99151.95
2023-04-30T06:17:12.677Z,99143.61
2023-04-30T06:19:39.288Z,99144.14
2023-04-30T06:22:05.842Z,99141.90
2023-04-30T06:24:32.444Z,99141.64
2023-04-30T06:26:59.100Z,99135.65
2023-04-30T06:29:25.691Z,99130.69
2023-04-30T06:31:52.473Z,99134.85
2023-04-30T06:34:20.044Z,99135.80
2023-04-30T06:36:46.674Z,99140.39
2023-04-30T06:39:16.560Z,99139.15
2023-04-30T06:41:43.319Z,99131.14
2023-04-30T06:44:10.045Z,99126.05
2023-04-30T06:46:36.835Z,99125.73
2023-04-30T06:49:03.704Z,99126.15
2023-04-30T06:51:30.417Z,99125.17
2023-04-30T06:53:57.079Z,99126.04
2023-04-30T06:56:24.496Z,99121.13
2023-04-30T06:58:51.069Z,99118.65
2023-04-30T07:01:18.231Z,99112.21
2023-04-30T07:03:44.958Z,99112.04
2023-04-30T07:06:11.805Z,99110.23
2023-04-30T07:08:40.594Z,99104.67
2023-04-30T07:11:07.461Z,99099.45
2023-04-30T07:13:34.052Z,99094.52
2023-04-30T07:16:00.893Z,99090.05
2023-04-30T07:18:27.749Z,99085.14
2023-04-30T07:20:54.401Z,99085.13
2023-04-30T07:23:21.225Z,99082.98
2023-04-30T07:25:48.049Z,99079.77
2023-04-30T07:28:14.995Z,99082.13
2023-04-30T07:30:42.159Z,99078.20
2023-04-30T07:33:08.958Z,99075.96
2023-04-30T07:35:36.015Z,99068.64
2023-04-30T07:38:04.289Z,99070.36
2023-04-30T07:40:36.151Z,99067.70
2023-04-30T07:43:04.714Z,99066.36
2023-04-30T07:45:32.726Z,99062.06
2023-04-30T07:47:59.395Z,99067.04
2023-04-30T07:50:27.801Z,99066.88
2023-04-30T07:52:54.391Z,99058.48
2023-04-30T07:55:21.133Z,99061.02
2023-04-30T07:57:48.104Z,99054.33
2023-04-30T08:00:15.555Z,99054.87
2023-04-30T08:02:45.256Z,99056.92
2023-04-30T08:05:12.287Z,99054.17
2023-04-30T08:07:39.441Z,99051.73
2023-04-30T08:10:07.218Z,99060.33
2023-04-30T08:12:38.602Z,99060.54
2023-04-30T08:15:07.030Z,99059.30
2023-04-30T08:17:34.199Z,99060.86
2023-04-30T08:20:02.981Z,99057.42
2023-04-30T08:22:30.130Z,99061.70
2023-04-30T08:24:57.018Z,99063.23
2023-04-30T08:27:23.821Z,99058.95
2023-04-30T08:29:50.641Z,99056.05
2023-04-30T08:32:18.772Z,99058.67
2023-04-30T08:34:45.649Z,99052.96
2023-04-30T08:37:12.321Z,99044.20
2023-04-30T08:39:38.951Z,99043.42
2023-04-30T08:42:08.535Z,99041.56
2023-04-30T08:44:39.211Z,99043.67
2023-04-30T08:47:07.044Z,99044.70
2023-04-30T08:49:33.674Z,99038.70
2023-04-30T08:52:00.825Z,99029.83
2023-04-30T08:54:29.129Z,99038.55
2023-04-30T08:56:56.653Z,99036.29
2023-04-30T08:59:23.496Z,99039.40
2023-04-30T09:01:53.495Z,99039.34
2023-04-30T09:04:20.941Z,99041.92
2023-04-30T09:06:47.710Z,99037.02
2023-04-30T09:09:15.673Z,99039.60
2023-04-30T09:11:43.504Z,99037.69
2023-04-30T09:14:10.272Z,99034.81
2023-04-30T09:16:47.417Z,99035.39
2023-04-30T09:19:24.854Z,99030.00
2023-04-30T09:21:51.473Z,99028.43
2023-04-30T09:24:18.874Z,99027.28
2023-04-30T09:26:48.955Z,99029.96
2023-04-30T09:29:15.631Z,99032.27
2023-04-30T09:31:46.811Z,99029.22
2023-04-30T09:34:13.718Z,99028.04
2023-04-30T09:37:00.531Z,99021.96
2023-04-30T09:39:27.142Z,99020.31
2023-04-30T09:42:10.472Z,99019.04
2023-04-30T09:44:38.561Z,99019.70
2023-04-30T09:47:11.061Z,99014.96
2023-04-30T09:49:38.045Z,99010.61
2023-04-30T09:52:05.018Z,99007.52
2023-04-30T09:54:31.820Z,99000.21
2023-04-30T09:57:01.000Z,99003.10
2023-04-30T09:59:37.487Z,98996.50
2023-04-30T10:02:05.435Z,98992.57
2023-04-30T10:04:33.990Z,98995.31
2023-04-30T10:07:02.253Z,99001.95
2023-04-30T10:09:36.101Z,98993.73
2023-04-30T10:12:04.086Z,98988.08
2023-04-30T10:14:33.774Z,98992.73
2023-04-30T10:17:06.073Z,98986.48
2023-04-30T10:19:33.826Z,98984.02
2023-04-30T10:22:01.491Z,98988.60
2023-04-30T10:24:28.480Z,98983.73
2023-04-30T10:26:56.697Z,98982.95
2023-04-30T10:29:23.287Z,98979.17
2023-04-30T10:31:52.087Z,98981.30
2023-04-30T10:34:41.064Z,98981.91
2023-04-30T10:37:34.499Z,98980.63
2023-04-30T10:40:04.350Z,98977.38
2023-04-30T10:42:33.882Z,98974.50
2023-04-30T10:45:03.114Z,98974.23
2023-04-30T10:47:30.440Z,98973.44
2023-04-30T10:50:04.305Z,98966.12
2023-04-30T10:52:31.050Z,98963.84
2023-04-30T10:54:58.182Z,98960.49
2023-04-30T10:57:26.474Z,98954.54
2023-04-30T11:00:14.586Z,98959.89
2023-04-30T11:02:43.387Z,98958.52
2023-04-30T11:05:14.124Z,98958.94
2023-04-30T11:07:51.342Z,98957.68
2023-04-30T11:10:22.365Z,98952.42
2023-04-30T11:12:53.129Z,98955.91
2023-04-30T11:15:22.077Z,98953.33
2023-04-30T11:17:49.200Z,98949.99
2023-04-30T11:20:20.427Z,98953.73
2023-04-30T11:22:47.159Z,98956.57
2023-04-30T11:25:18.486Z,98957.06
2023-04-30T11:27:45.479Z,98952.61
2023-04-30T11:30:16.204Z,98950.83
2023-04-30T11:32:46.723Z,98945.44
2023-04-30T11:35:14.844Z,98945.76
2023-04-30T11:37:43.965Z,98946.27
2023-04-30T11:40:14.156Z,98947.67
2023-04-30T11:42:46.642Z,98947.00
2023-04-30T11:45:20.172Z,98946.05
2023-04-30T11:47:48.475Z,98945.23
2023-04-30T11:50:16.531Z,98939.69
2023-04-30T11:52:52.162Z,98937.23
2023-04-30T11:55:20.788Z,98941.84
2023-04-30T11:57:52.786Z,98935.01
2023-04-30T12:00:20.494Z,98937.96
2023-04-30T12:02:48.696Z,98931.48
2023-04-30T12:05:16.988Z,98932.80
2023-04-30T12:07:47.167Z,98934.77
2023-04-30T12:10:14.015Z,98935.64
2023-04-30T12:12:42.854Z,98939.98
2023-04-30T12:15:13.472Z,98937.86
2023-04-30T12:17:40.424Z,98938.20
2023-04-30T12:20:08.811Z,98935.61
2023-04-30T12:22:36.990Z,98940.95
2023-04-30T12:25:22.064Z,98939.42
2023-04-30T12:27:50.759Z,98941.39
2023-04-30T12:30:26.171Z,98938.26
2023-04-30T12:32:54.220Z,98935.31
2023-04-30T12:35:21.631Z,98941.07
2023-04-30T12:37:51.421Z,98940.81
2023-04-30T12:40:24.617Z,98942.63
2023-04-30T12:42:51.558Z,98930.73
2023-04-30T12:45:44.043Z,98919.27
2023-04-30T12:48:11.249Z,98920.38
2023-04-30T12:50:38.845Z,98915.74
2023-04-30T12:53:07.205Z,98918.00
2023-04-30T12:55:36.792Z,98922.11
2023-04-30T12:58:10.948Z,98921.80
2023-04-30T13:00:48.133Z,98919.52
2023-04-30T13:03:16.918Z,98915.12
2023-04-30T13:05:51.129Z,98909.55
2023-04-30T13:08:18.888Z,98909.57
2023-04-30T13:10:46.521Z,98912.52
2023-04-30T13:13:14.673Z,98914.17
2023-04-30T13:15:44.238Z,98920.30
2023-04-30T13:18:11.424Z,98921.52
2023-04-30T13:20:38.231Z,98916.63
2023-04-30T13:23:05.956Z,98920.83
2023-04-30T13:25:33.178Z,98925.67
2023-04-30T13:28:00.022Z,98927.08
2023-04-30T13:30:27.023Z,98925.20
2023-04-30T13:32:53.679Z,98921.59
2023-04-30T13:35:20.413Z,98921.45
2023-04-30T13:37:51.946Z,98918.20
2023-04-30T13:40:19.201Z,98911.45
2023-04-30T13:42:46.660Z,98916.66
2023-04-30T13:45:13.315Z,98914.89
2023-04-30T13:47:40.553Z,98916.34
2023-04-30T13:50:08.048Z,98918.01
2023-04-30T13:52:35.365Z,98916.39
2023-04-30T13:55:04.178Z,98916.04
2023-04-30T13:57:32.779Z,98917.08
2023-04-30T13:59:59.574Z,98918.83
2023-04-30T14:02:27.616Z,98918.21
2023-04-30T14:05:05.186Z,98919.95
2023-04-30T14:07:33.032Z,98918.16
2023-04-30T14:09:59.749Z,98913.89
2023-04-30T14:12:26.374Z,98916.30
2023-04-30T14:14:53.307Z,98920.74
2023-04-30T14:17:20.132Z,98919.17
2023-04-30T14:19:46.990Z,98920.60
2023-04-30T14:22:14.042Z,98921.23
2023-04-30T14:24:40.974Z,98925.06
2023-04-30T14:27:07.636Z,98922.80
2023-04-30T14:29:34.514Z,98922.91
2023-04-30T14:32:01.591Z,98920.60
2023-04-30T14:34:28.329Z,98918.08
2023-04-30T14:36:55.284Z,98920.34
2023-04-30T14:39:21.878Z,98913.68
2023-04-30T14:41:48.444Z,98911.57
2023-04-30T14:44:15.056Z,98917.48
2023-04-30T14:46:41.686Z,98917.66
2023-04-30T14:49:08.431Z,98916.21
2023-04-30T14:51:35.534Z,98918.45
2023-04-30T14:54:02.387Z,98919.27
2023-04-30T14:56:29.377Z,98926.64
2023-04-30T14:58:56.684Z,98930.23
2023-04-30T15:01:23.854Z,98923.84
2023-04-30T15:03:50.990Z,98923.20
2023-04-30T15:06:18.676Z,98919.29
2023-04-30T15:08:45.655Z,98915.83
2023-04-30T15:11:12.676Z,98914.16
2023-04-30T15:13:39.894Z,98914.88
2023-04-30T15:16:07.025Z,98911.73
2023-04-30T15:18:34.002Z,98913.95
2023-04-30T15:21:01.632Z,98909.86
2023-04-30T15:23:29.502Z,98910.98
2023-04-30T15:25:56.543Z,98915.17
2023-04-30T15:28:24.102Z,98913.09
2023-04-30T15:30:51.759Z,98913.38
2023-04-30T15:33:23.817Z,98914.61
2023-04-30T15:35:50.626Z,98918.59
2023-04-30T15:38:17.664Z,98917.30
2023-04-30T15:40:44.292Z,98919.63
2023-04-30T15:43:10.892Z,98919.89
2023-04-30T15:45:38.095Z,98923.35
2023-04-30T15:48:05.017Z,98923.00
2023-04-30T15:50:32.742Z,98922.91
2023-04-30T15:52:59.382Z,98920.14
2023-04-30T15:55:26.144Z,98922.46
2023-04-30T15:57:52.831Z,98921.45
2023-04-30T16:00:19.596Z,98917.38
2023-04-30T16:02:46.541Z,98914.19
2023-04-30T16:05:13.668Z,98915.70
2023-04-30T16:07:43.625Z,98908.37
2023-04-30T16:10:11.104Z,98914.12
2023-04-30T16:12:38.847Z,98915.04
2023-04-30T16:15:06.494Z,98914.14
2023-04-30T16:17:33.439Z,98920.14
2023-04-30T16:20:00.315Z,98923.59
2023-04-30T16:22:27.485Z,98923.20
2023-04-30T16:24:54.183Z,98925.30
2023-04-30T16:27:20.831Z,98923.77
2023-04-30T16:29:47.644Z,98924.41
2023-04-30T16:32:14.268Z,98924.31
2023-04-30T16:34:41.262Z,98917.92
2023-04-30T16:37:08.704Z,98919.17
2023-04-30T16:39:35.586Z,98914.64
2023-04-30T16:42:02.730Z,98920.23
2023-04-30T16:44:30.973Z,98924.33
2023-04-30T16:46:59.277Z,98923.30
2023-04-30T16:49:25.938Z,98921.16
2023-04-30T16:51:52.606Z,98926.53
2023-04-30T16:54:19.214Z,98929.27
2023-04-30T16:56:46.122Z,98931.59
2023-04-30T16:59:12.780Z,98934.89
2023-04-30T17:01:39.441Z,98935.70
2023-04-30T17:04:06.381Z,98937.38
2023-04-30T17:06:34.777Z,98936.69
2023-04-30T17:09:01.457Z,98939.67
2023-04-30T17:11:28.578Z,98941.84
2023-04-30T17:13:55.346Z,98944.75
2023-04-30T17:16:22.066Z,98942.88
2023-04-30T17:18:48.717Z,98944.89
2023-04-30T17:21:15.397Z,98946.02
2023-04-30T17:23:42.230Z,98943.52
2023-04-30T17:26:09.099Z,98943.79
2023-04-30T17:28:36.843Z,98940.61
2023-04-30T17:31:06.239Z,98943.55
2023-04-30T17:33:33.626Z,98945.50
2023-04-30T17:36:00.660Z,98944.24
2023-04-30T17:38:27.667Z,98945.73
2023-04-30T17:40:56.079Z,98948.06
2023-04-30T17:43:23.355Z,98950.46
2023-04-30T17:45:52.730Z,98950.89
2023-04-30T17:48:19.864Z,98956.36
2023-04-30T17:50:46.532Z,98955.11
2023-04-30T17:53:13.450Z,98959.33
2023-04-30T17:55:40.190Z,98957.85
2023-04-30T17:58:09.588Z,98960.58
2023-04-30T18:00:40.818Z,98958.38
2023-04-30T18:03:07.694Z,98960.17
2023-04-30T18:05:35.665Z,98960.43
2023-04-30T18:08:02.779Z,98958.39
2023-04-30T18:10:29.721Z,98959.73
2023-04-30T18:12:59.534Z,98962.89
2023-04-30T18:15:27.172Z,98962.90
2023-04-30T18:17:54.068Z,98960.95
2023-04-30T18:20:21.549Z,98959.99
2023-04-30T18:22:48.319Z,98962.86
2023-04-30T18:25:16.445Z,98962.95
2023-04-30T18:27:43.136Z,98960.03
2023-04-30T18:30:11.020Z,98959.59
2023-04-30T18:32:38.294Z,98959.46
2023-04-30T18:35:05.303Z,98955.67
2023-04-30T18:37:32.371Z,98954.49
2023-04-30T18:39:59.962Z,98951.46
2023-04-30T18:42:26.615Z,98953.16
2023-04-30T18:44:53.902Z,98952.86
2023-04-30T18:47:20.700Z,98950.41
2023-04-30T18:49:47.538Z,98951.34
2023-04-30T18:52:14.318Z,98948.11
2023-04-30T18:54:42.037Z,98949.06
2023-04-30T18:57:12.058Z,98944.55
2023-04-30T18:59:39.210Z,98942.04
2023-04-30T19:02:06.000Z,98942.30
2023-04-30T19:04:33.110Z,98939.48
2023-04-30T19:07:00.086Z,98941.18
2023-04-30T19:09:26.811Z,98942.14
2023-04-30T19:11:53.405Z,98943.84
2023-04-30T19:14:20.262Z,98943.13
2023-04-30T19:16:47.305Z,98944.79
2023-04-30T19:19:14.360Z,98947.62
2023-04-30T19:21:41.117Z,98944.02
2023-04-30T19:24:08.367Z,98946.48
2023-04-30T19:26:36.795Z,98946.21
2023-04-30T19:29:03.480Z,98944.59
2023-04-30T19:31:30.966Z,98939.06
2023-04-30T19:33:59.650Z,98939.08
2023-04-30T19:36:26.751Z,98938.94
2023-04-30T19:38:53.466Z,98938.73
2023-04-30T19:41:21.161Z,98940.27
2023-04-30T19:43:48.209Z,98940.91
2023-04-30T19:46:15.680Z,98937.52
2023-04-30T19:48:44.033Z,98938.52
2023-04-30T19:51:10.907Z,98940.06
2023-04-30T19:53:37.826Z,98938.98
2023-04-30T19:56:04.803Z,98937.44
2023-04-30T19:58:31.918Z,98935.91
2023-04-30T20:00:59.749Z,98935.93
2023-04-30T20:03:26.470Z,98938.38
2023-04-30T20:05:53.525Z,98940.48
2023-04-30T20:08:21.618Z,98943.09
2023-04-30T20:10:49.709Z,98944.36
2023-04-30T20:13:17.293Z,98949.95
2023-04-30T20:15:44.075Z,98950.44
2023-04-30T20:18:12.042Z,98949.56
2023-04-30T20:20:38.953Z,98951.35
2023-04-30T20:23:15.693Z,98950.88
2023-04-30T20:25:44.619Z,98961.20
2023-04-30T20:28:12.460Z,98960.98
2023-04-30T20:30:41.759Z,98961.37
2023-04-30T20:33:12.401Z,98957.62
2023-04-30T20:35:40.572Z,98956.80
2023-04-30T20:38:07.940Z,98954.92
2023-04-30T20:40:35.002Z,98954.13
2023-04-30T20:43:01.801Z,98955.91
2023-04-30T20:45:29.499Z,98954.83
2023-04-30T20:47:56.158Z,98960.01
2023-04-30T20:50:22.828Z,98961.06
2023-04-30T20:52:49.905Z,98961.77
2023-04-30T20:55:16.992Z,98966.49
2023-04-30T20:57:43.616Z,98965.14
2023-04-30T21:00:11.330Z,98960.11
2023-04-30T21:02:38.576Z,98962.29
2023-04-30T21:05:06.282Z,98962.11
2023-04-30T21:07:36.148Z,98965.33
2023-04-30T21:10:07.599Z,98965.79
2023-04-30T21:12:34.327Z,98972.47
2023-04-30T21:15:01.060Z,98973.48
2023-04-30T21:17:27.815Z,98974.27
2023-04-30T21:19:55.983Z,98973.77
2023-04-30T21:22:23.499Z,98974.14
2023-04-30T21:24:52.912Z,98973.99
2023-04-30T21:27:20.326Z,98969.36
2023-04-30T21:29:47.269Z,98969.69
2023-04-30T21:32:13.954Z,98973.27
2023-04-30T21:34:40.601Z,98971.83
2023-04-30T21:37:07.317Z,98976.35
2023-04-30T21:39:33.946Z,98975.29
2023-04-30T21:42:00.538Z,98978.73
2023-04-30T21:44:31.788Z,98979.38
2023-04-30T21:46:58.998Z,98976.27
2023-04-30T21:49:25.850Z,98979.91
2023-04-30T21:51:52.517Z,98982.67
2023-04-30T21:54:19.155Z,98980.88
2023-04-30T21:56:46.182Z,98983.05
2023-04-30T21:59:12.818Z,98984.41
2023-04-30T22:01:39.804Z,98982.15
2023-04-30T22:04:06.454Z,98982.13
2023-04-30T22:06:34.082Z,98981.50
2023-04-30T22:09:00.812Z,98982.40
2023-04-30T22:11:27.453Z,98979.44
2023-04-30T22:13:54.448Z,98981.81
2023-04-30T22:16:21.131Z,98981.02
2023-04-30T22:18:47.770Z,98977.28
2023-04-30T22:21:14.704Z,98985.15
2023-04-30T22:23:41.438Z,98983.58
2023-04-30T22:26:09.390Z,98983.36
2023-04-30T22:28:37.299Z,98985.41
2023-04-30T22:31:04.142Z,98982.11
2023-04-30T22:33:35.460Z,98985.71
2023-04-30T22:36:03.845Z,98987.21
2023-04-30T22:38:30.977Z,98992.11
2023-04-30T22:40:58.732Z,98993.54
2023-04-30T22:43:26.526Z,99003.48
2023-04-30T22:45:53.830Z,99000.96
2023-04-30T22:48:20.644Z,99002.99
2023-04-30T22:50:47.287Z,99004.73
2023-04-30T22:53:13.876Z,99002.91
2023-04-30T22:55:40.477Z,99002.44
2023-04-30T22:58:07.176Z,98999.89
2023-04-30T23:00:33.909Z,98998.57
2023-04-30T23:03:00.829Z,98997.66
2023-04-30T23:05:27.839Z,99003.08
2023-04-30T23:07:54.561Z,99001.54
2023-04-30T23:10:21.218Z,98998.96
2023-04-30T23:12:48.112Z,98993.33
2023-04-30T23:15:14.760Z,98988.60
2023-04-30T23:17:41.458Z,98991.23
2023-04-30T23:20:09.141Z,98998.52
2023-04-30T23:22:36.279Z,99000.24
2023-04-30T23:25:03.133Z,98994.80
2023-04-30T23:27:30.342Z,98992.56
2023-04-30T23:29:57.296Z,98996.40
2023-04-30T23:32:24.708Z,98998.34
2023-04-30T23:34:51.869Z,98997.98
2023-04-30T23:37:18.596Z,98997.77
2023-04-30T23:39:45.459Z,98995.46
2023-04-30T23:42:13.109Z,98995.06
2023-04-30T23:44:40.153Z,98991.29
2023-04-30T23:47:07.066Z,98988.46
2023-04-30T23:49:34.252Z,98990.44
2023-04-30T23:52:01.070Z,98986.92
2023-04-30T23:54:28.268Z,98986.38
2023-04-30T23:56:55.294Z,98987.84
2023-04-30T23:59:24.193Z,98987.67
